Time;durP1;ratioP1;P1;durP2;ratioP2;P2;SDS_P1;SDS_P2;PMS_P1;PMS_P2;Temp;Humidity;BMP_temperature;BMP_pressure;BME280_temperature;BME280_humidity;BME280_pressure;Samples;Min_cycle;Max_cycle;Signal;HPM_P1;HPM_P2
2022/01/08 00:00:22;;;;;;;24.43;11.17;;;1.30;99.90;;;;;;4938360;29;20062;-66
2022/01/08 00:02:50;;;;;;;20.77;10.87;;;1.40;99.90;;;;;;4938081;29;20496;-66
2022/01/08 00:05:18;;;;;;;27.23;11.17;;;1.30;99.90;;;;;;4937762;29;20077;-66
2022/01/08 00:07:45;;;;;;;21.27;10.00;;;1.30;99.90;;;;;;4938435;29;20067;-66
2022/01/08 00:10:13;;;;;;;23.20;11.77;;;1.30;99.90;;;;;;4937806;29;20091;-67
2022/01/08 00:12:40;;;;;;;24.83;12.33;;;1.30;99.90;;;;;;4938059;29;20142;-67
2022/01/08 00:15:08;;;;;;;21.20;10.47;;;1.30;99.90;;;;;;4937505;29;20575;-66
2022/01/08 00:17:35;;;;;;;21.27;10.60;;;1.30;99.90;;;;;;4938074;29;20075;-64
2022/01/08 00:20:04;;;;;;;23.53;11.10;;;1.30;99.90;;;;;;4937964;29;20056;-64
2022/01/08 00:22:33;;;;;;;22.10;10.83;;;1.30;99.90;;;;;;4938019;29;20079;-67
2022/01/08 00:25:00;;;;;;;22.40;11.47;;;1.30;99.90;;;;;;4937782;29;20516;-64
2022/01/08 00:27:27;;;;;;;24.27;11.40;;;1.30;99.90;;;;;;4938117;29;20051;-63
2022/01/08 00:29:54;;;;;;;20.07;11.03;;;1.30;99.90;;;;;;4936972;29;20083;-64
2022/01/08 00:32:21;;;;;;;23.53;11.33;;;1.30;99.90;;;;;;4936844;29;20143;-65
2022/01/08 00:34:48;;;;;;;22.47;11.27;;;1.40;99.90;;;;;;4936058;29;20516;-66
2022/01/08 00:37:15;;;;;;;18.83;9.77;;;1.40;99.90;;;;;;4936894;29;20591;-66
2022/01/08 00:39:44;;;;;;;15.00;8.43;;;1.40;99.90;;;;;;4936127;29;20134;-64
2022/01/08 00:42:11;;;;;;;17.13;9.97;;;1.40;99.90;;;;;;4936138;29;20142;-66
2022/01/08 00:44:40;;;;;;;18.50;9.07;;;1.40;99.90;;;;;;4936474;29;20134;-68
2022/01/08 00:47:07;;;;;;;16.40;9.03;;;1.40;99.90;;;;;;4936054;29;20078;-64
2022/01/08 00:49:34;;;;;;;18.60;9.10;;;1.50;99.90;;;;;;4936116;29;20055;-63
2022/01/08 00:52:01;;;;;;;16.87;8.60;;;1.40;99.90;;;;;;4936232;29;20138;-65
2022/01/08 00:54:28;;;;;;;21.47;9.30;;;1.40;99.90;;;;;;4936130;29;20139;-64
2022/01/08 00:56:57;;;;;;;21.10;9.83;;;1.40;99.90;;;;;;4936037;29;20483;-65
2022/01/08 00:59:24;;;;;;;18.63;9.90;;;1.40;99.90;;;;;;4936164;29;20567;-63
2022/01/08 01:01:51;;;;;;;19.33;10.33;;;1.40;99.90;;;;;;4935934;29;20058;-63
2022/01/08 01:04:18;;;;;;;16.47;9.37;;;1.40;99.90;;;;;;4935879;29;20103;-66
2022/01/08 01:06:45;;;;;;;14.70;9.07;;;1.40;99.90;;;;;;4935569;29;20591;-66
2022/01/08 01:13:06;;;;;;;21.60;11.33;;;1.30;99.90;;;;;;4935521;29;20063;-66
2022/01/08 01:15:33;;;;;;;20.77;11.17;;;1.30;99.90;;;;;;4933865;29;20051;-65
2022/01/08 01:18:00;;;;;;;17.83;10.83;;;1.30;99.90;;;;;;4935568;29;20148;-65
2022/01/08 01:20:27;;;;;;;20.07;10.43;;;1.30;99.90;;;;;;4935457;29;20504;-68
2022/01/08 01:22:59;;;;;;;19.83;10.23;;;1.30;99.90;;;;;;4935565;29;20134;-66
2022/01/08 01:25:31;;;;;;;22.20;9.87;;;1.30;99.90;;;;;;4935502;29;20115;-65
2022/01/08 01:28:08;;;;;;;23.20;10.87;;;1.30;99.90;;;;;;4935368;29;20051;-65
2022/01/08 01:41:50;;;;;;;21.37;11.57;;;1.30;99.90;;;;;;4935186;29;20079;-64
2022/01/08 01:47:04;;;;;;;22.57;11.67;;;1.20;99.90;;;;;;4934943;29;20526;-65
2022/01/08 01:49:32;;;;;;;20.47;11.10;;;1.20;99.90;;;;;;4935002;29;20062;-64
2022/01/08 01:52:01;;;;;;;25.43;12.17;;;1.10;99.90;;;;;;4934722;29;20061;-65
2022/01/08 01:54:28;;;;;;;22.67;11.43;;;1.20;99.90;;;;;;4934902;29;20563;-63
2022/01/08 01:56:57;;;;;;;23.40;12.20;;;1.10;99.90;;;;;;4934827;29;20134;-63
2022/01/08 01:59:26;;;;;;;28.93;13.77;;;1.10;99.90;;;;;;4935147;29;20444;-64
2022/01/08 02:01:53;;;;;;;28.33;12.67;;;1.10;99.90;;;;;;4934695;29;20138;-64
2022/01/08 02:04:20;;;;;;;24.13;12.40;;;1.10;99.90;;;;;;4934661;29;20139;-64
2022/01/08 02:06:47;;;;;;;26.97;13.77;;;1.10;99.90;;;;;;4934499;29;20143;-65
2022/01/08 02:09:14;;;;;;;25.50;12.03;;;1.10;99.90;;;;;;4935130;29;20083;-65
2022/01/08 02:11:58;;;;;;;28.13;14.50;;;1.10;99.90;;;;;;4934546;29;20139;-64
2022/01/08 02:14:28;;;;;;;23.57;12.87;;;1.10;99.90;;;;;;4934550;29;20134;-64
2022/01/08 02:16:55;;;;;;;23.67;12.20;;;1.10;99.90;;;;;;4934596;29;20061;-66
2022/01/08 02:19:22;;;;;;;24.37;12.43;;;1.10;99.90;;;;;;4934626;29;20052;-64
2022/01/08 02:21:53;;;;;;;26.93;13.27;;;1.10;99.90;;;;;;4934499;29;20147;-64
2022/01/08 02:24:20;;;;;;;24.40;12.27;;;1.10;99.90;;;;;;4934481;29;20098;-64
2022/01/08 02:26:47;;;;;;;27.77;12.37;;;1.20;99.90;;;;;;4934309;29;20130;-66
2022/01/08 02:29:15;;;;;;;28.13;14.03;;;1.10;99.90;;;;;;4934421;29;20468;-65
2022/01/08 02:31:42;;;;;;;26.83;13.30;;;1.10;99.90;;;;;;4934335;29;20448;-65
2022/01/08 02:34:09;;;;;;;26.40;12.33;;;1.10;99.90;;;;;;4934665;29;20150;-65
2022/01/08 02:36:38;;;;;;;25.37;12.30;;;1.10;99.90;;;;;;4934474;29;20126;-66
2022/01/08 02:39:07;;;;;;;25.83;11.97;;;1.10;99.90;;;;;;4934694;29;20081;-64
2022/01/08 02:41:34;;;;;;;21.27;11.83;;;1.20;99.90;;;;;;4934402;29;20092;-64
2022/01/08 02:44:01;;;;;;;21.83;10.03;;;1.20;99.90;;;;;;4934137;29;20056;-64
2022/01/08 02:46:28;;;;;;;28.67;11.87;;;1.20;99.90;;;;;;4926205;29;20143;-64
2022/01/08 02:48:55;;;;;;;22.63;11.60;;;1.20;99.90;;;;;;4934272;29;20065;-63
2022/01/08 02:51:22;;;;;;;24.90;11.63;;;1.10;99.90;;;;;;4934100;29;20107;-66
2022/01/08 02:53:49;;;;;;;21.73;11.67;;;1.20;99.90;;;;;;4934301;29;20139;-66
2022/01/08 02:56:17;;;;;;;26.03;12.73;;;1.10;99.90;;;;;;4934012;29;20055;-64
2022/01/08 02:58:44;;;;;;;24.27;11.03;;;1.10;99.90;;;;;;4933902;29;20134;-64
2022/01/08 03:01:11;;;;;;;20.53;10.77;;;1.20;99.90;;;;;;4934028;29;20147;-64
2022/01/08 03:03:38;;;;;;;21.00;11.07;;;1.10;99.90;;;;;;4934416;29;20135;-62
2022/01/08 03:06:05;;;;;;;27.93;13.70;;;1.20;99.90;;;;;;4934003;29;20143;-64
2022/01/08 03:08:32;;;;;;;25.80;12.20;;;1.10;99.90;;;;;;4934297;29;20103;-64
2022/01/08 03:10:59;;;;;;;23.43;11.53;;;1.10;99.90;;;;;;4933859;29;20131;-66
2022/01/08 03:13:27;;;;;;;27.13;13.23;;;1.20;99.90;;;;;;4933875;29;20091;-65
2022/01/08 03:15:54;;;;;;;24.90;11.33;;;1.10;99.90;;;;;;4933842;29;20134;-65
2022/01/08 03:18:21;;;;;;;22.43;12.03;;;1.20;99.90;;;;;;4933976;29;20139;-64
2022/01/08 03:21:01;;;;;;;20.47;11.10;;;1.20;99.90;;;;;;4933923;29;20139;-66
2022/01/08 03:23:36;;;;;;;24.17;11.07;;;1.20;99.90;;;;;;4934142;29;20087;-66
2022/01/08 03:26:03;;;;;;;25.00;12.07;;;1.20;99.90;;;;;;4933953;29;20055;-64
2022/01/08 03:28:32;;;;;;;24.00;11.43;;;1.20;99.90;;;;;;4934281;29;20087;-64
2022/01/08 03:30:59;;;;;;;22.20;11.53;;;1.10;99.90;;;;;;4933860;29;20091;-64
2022/01/08 03:33:26;;;;;;;27.73;13.37;;;1.10;99.90;;;;;;4934437;29;20134;-64
2022/01/08 03:35:53;;;;;;;23.43;11.60;;;1.00;99.90;;;;;;4937201;29;20051;-64
2022/01/08 03:38:20;;;;;;;24.07;11.90;;;1.00;99.90;;;;;;4937400;29;20059;-64
2022/01/08 03:40:47;;;;;;;23.20;12.90;;;1.00;99.90;;;;;;4971806;23;20512;-68
2022/01/08 03:43:14;;;;;;;28.77;13.93;;;0.90;99.90;;;;;;4995134;28;20141;-69
2022/01/08 03:45:42;;;;;;;29.77;13.67;;;0.90;99.90;;;;;;4995165;28;20060;-69
2022/01/08 03:48:26;;;;;;;30.33;14.27;;;0.90;99.90;;;;;;4995349;28;20553;-69
2022/01/08 03:50:55;;;;;;;29.93;14.80;;;0.90;99.90;;;;;;4994929;28;20042;-69
2022/01/08 03:53:22;;;;;;;27.63;14.43;;;0.90;99.90;;;;;;4994928;28;20055;-69
2022/01/08 03:55:49;;;;;;;27.93;14.90;;;0.90;99.90;;;;;;4995041;28;20097;-69
2022/01/08 03:58:16;;;;;;;29.73;14.53;;;0.90;99.90;;;;;;4994832;28;20149;-69
2022/01/08 04:00:44;;;;;;;26.83;13.50;;;0.90;99.90;;;;;;4994761;28;20141;-69
2022/01/08 04:03:11;;;;;;;27.27;14.20;;;0.90;99.90;;;;;;4995027;28;20137;-69
2022/01/08 04:05:38;;;;;;;33.87;15.33;;;0.90;99.90;;;;;;4994941;28;20437;-69
2022/01/08 04:08:06;;;;;;;29.27;13.20;;;0.90;99.90;;;;;;4994699;28;20050;-69
2022/01/08 04:10:33;;;;;;;30.10;14.07;;;0.90;99.90;;;;;;4994844;28;20056;-69
2022/01/08 04:13:08;;;;;;;31.63;15.33;;;0.90;99.90;;;;;;4994359;28;20133;-69
2022/01/08 04:15:38;;;;;;;29.87;14.50;;;0.80;99.90;;;;;;4994738;28;20066;-69
2022/01/08 04:18:07;;;;;;;28.97;15.03;;;0.80;99.90;;;;;;4994414;28;20101;-69
2022/01/08 04:20:44;;;;;;;30.00;15.23;;;0.80;99.90;;;;;;4994485;28;20503;-69
2022/01/08 04:23:11;;;;;;;31.33;15.23;;;0.80;99.90;;;;;;4994820;28;20050;-69
2022/01/08 04:25:38;;;;;;;33.13;15.87;;;0.80;99.90;;;;;;4994511;28;20491;-69
2022/01/08 04:28:05;;;;;;;31.37;15.33;;;0.80;99.90;;;;;;4994341;28;20097;-69
2022/01/08 04:30:32;;;;;;;31.20;15.30;;;0.70;99.90;;;;;;4994336;28;20462;-68
2022/01/08 04:32:59;;;;;;;33.57;15.83;;;0.70;99.90;;;;;;4994079;28;20566;-69
2022/01/08 04:35:27;;;;;;;35.17;16.13;;;0.80;99.90;;;;;;4994412;28;20490;-69
2022/01/08 04:37:54;;;;;;;37.50;16.40;;;0.70;99.90;;;;;;4994449;28;20137;-68
2022/01/08 04:40:21;;;;;;;33.27;16.57;;;0.70;99.90;;;;;;4994269;28;20145;-69
2022/01/08 04:42:48;;;;;;;36.20;17.27;;;0.80;99.90;;;;;;5004345;28;20149;-69
2022/01/08 04:45:14;;;;;;;35.03;16.17;;;0.80;99.90;;;;;;5013315;28;20073;-69
2022/01/08 04:47:41;;;;;;;33.80;16.03;;;0.80;99.90;;;;;;4997352;28;20129;-69
2022/01/08 04:50:12;;;;;;;34.87;15.77;;;0.80;99.90;;;;;;4994149;28;20046;-69
2022/01/08 04:52:40;;;;;;;31.93;15.77;;;0.70;99.90;;;;;;4994019;28;20177;-69
2022/01/08 04:55:08;;;;;;;35.30;16.27;;;0.70;99.90;;;;;;4994106;28;20137;-68
2022/01/08 04:57:35;;;;;;;33.37;15.37;;;0.70;99.90;;;;;;4993922;28;20076;-69
2022/01/08 05:00:02;;;;;;;33.93;15.40;;;0.70;99.90;;;;;;4993738;28;20086;-69
2022/01/08 05:02:29;;;;;;;35.63;16.20;;;0.70;99.90;;;;;;4993679;28;20077;-69
2022/01/08 05:04:56;;;;;;;34.17;15.50;;;0.70;99.90;;;;;;4993683;28;20152;-69
2022/01/08 05:07:23;;;;;;;36.27;17.00;;;0.70;99.90;;;;;;4993625;28;20141;-68
2022/01/08 05:09:51;;;;;;;35.90;16.43;;;0.70;99.90;;;;;;4993262;28;20138;-68
2022/01/08 05:12:18;;;;;;;35.47;16.83;;;0.70;99.90;;;;;;4993506;28;20141;-68
2022/01/08 05:14:45;;;;;;;38.33;16.43;;;0.70;99.90;;;;;;4993421;28;20137;-68
2022/01/08 05:17:14;;;;;;;35.33;16.03;;;0.70;99.90;;;;;;4993746;28;20483;-69
2022/01/08 05:19:44;;;;;;;34.57;16.30;;;0.70;99.90;;;;;;4993781;28;20054;-69
2022/01/08 05:22:20;;;;;;;34.63;15.13;;;0.70;99.90;;;;;;4993279;28;20065;-69
2022/01/08 05:24:47;;;;;;;34.27;16.30;;;0.70;99.90;;;;;;4993258;28;20050;-69
2022/01/08 05:27:17;;;;;;;32.10;15.40;;;0.70;99.90;;;;;;4993303;28;20053;-69
2022/01/08 05:29:45;;;;;;;32.77;14.50;;;0.60;99.90;;;;;;5009047;28;20023;-69
2022/01/08 05:32:16;;;;;;;33.03;14.57;;;0.60;99.90;;;;;;5010770;28;20054;-69
2022/01/08 05:34:43;;;;;;;29.20;14.53;;;0.60;99.90;;;;;;4993611;28;20067;-69
2022/01/08 05:37:10;;;;;;;31.83;14.27;;;0.60;99.90;;;;;;4993245;28;20137;-69
2022/01/08 05:39:37;;;;;;;33.23;15.30;;;0.60;99.90;;;;;;4993386;28;20467;-69
2022/01/08 05:42:05;;;;;;;33.97;15.13;;;0.70;99.90;;;;;;4992844;28;20141;-69
2022/01/08 05:44:33;;;;;;;35.67;14.13;;;0.60;99.90;;;;;;4992814;28;20134;-69
2022/01/08 05:47:00;;;;;;;29.07;14.13;;;0.60;99.90;;;;;;4993198;28;20137;-69
2022/01/08 05:49:27;;;;;;;30.97;14.13;;;0.60;99.90;;;;;;4993096;28;20468;-69
2022/01/08 05:51:54;;;;;;;31.67;14.97;;;0.70;99.90;;;;;;4992906;28;20129;-69
2022/01/08 05:54:21;;;;;;;31.87;14.33;;;0.70;99.90;;;;;;4993013;28;20072;-69
2022/01/08 05:56:49;;;;;;;29.27;13.60;;;0.60;99.90;;;;;;4992592;28;20054;-69
2022/01/08 05:59:16;;;;;;;36.03;14.57;;;0.70;99.90;;;;;;4992773;28;20058;-69
2022/01/08 06:01:44;;;;;;;28.37;13.93;;;0.70;99.90;;;;;;4992496;28;20104;-69
2022/01/08 06:04:11;;;;;;;30.43;14.40;;;0.70;99.90;;;;;;4992729;28;20100;-69
2022/01/08 06:06:40;;;;;;;28.87;14.17;;;0.70;99.90;;;;;;4992621;28;20469;-69
2022/01/08 06:09:07;;;;;;;31.80;14.60;;;0.70;99.90;;;;;;4992676;28;20054;-69
2022/01/08 06:11:34;;;;;;;32.47;14.50;;;0.70;99.90;;;;;;4992363;28;20598;-69
2022/01/08 06:14:02;;;;;;;28.17;14.10;;;0.70;99.90;;;;;;4992370;28;20133;-69
2022/01/08 06:16:33;;;;;;;30.17;13.77;;;0.70;99.90;;;;;;4992596;28;20058;-69
2022/01/08 06:19:02;;;;;;;27.67;13.50;;;0.70;99.90;;;;;;4992745;28;20073;-70
2022/01/08 06:21:29;;;;;;;27.20;13.10;;;0.70;99.90;;;;;;4992296;28;20573;-69
2022/01/08 06:23:56;;;;;;;29.37;13.23;;;0.70;99.90;;;;;;4992353;28;20481;-69
2022/01/08 06:26:23;;;;;;;30.47;13.07;;;0.70;99.90;;;;;;4992337;28;20058;-69
2022/01/08 06:28:51;;;;;;;28.30;13.00;;;0.70;99.90;;;;;;4992551;28;20153;-69
2022/01/08 06:31:18;;;;;;;28.33;12.53;;;0.70;99.90;;;;;;4992349;28;20533;-69
2022/01/08 06:33:45;;;;;;;26.60;12.90;;;0.80;99.90;;;;;;4992235;28;20065;-69
2022/01/08 06:36:14;;;;;;;27.57;12.97;;;0.80;99.90;;;;;;4992146;28;20137;-69
2022/01/08 06:38:41;;;;;;;27.83;12.83;;;0.80;99.90;;;;;;4992116;28;20133;-69
2022/01/08 06:41:08;;;;;;;29.23;13.20;;;0.80;99.90;;;;;;4991184;28;20145;-69
2022/01/08 06:43:35;;;;;;;27.10;13.63;;;0.80;99.90;;;;;;4992330;28;20562;-69
2022/01/08 06:46:02;;;;;;;26.43;12.53;;;0.80;99.90;;;;;;4992383;28;20133;-69
2022/01/08 06:48:29;;;;;;;25.97;12.57;;;0.80;99.90;;;;;;5003147;28;20070;-70
2022/01/08 06:50:56;;;;;;;23.67;11.87;;;0.80;99.90;;;;;;5006348;28;20051;-70
2022/01/08 06:53:24;;;;;;;25.40;12.20;;;0.80;99.90;;;;;;5012300;28;20065;-70
2022/01/08 06:55:51;;;;;;;27.80;12.87;;;0.80;99.90;;;;;;4996420;28;20082;-70
2022/01/08 06:58:20;;;;;;;28.07;12.63;;;0.80;99.90;;;;;;4992438;28;20097;-70
2022/01/08 07:00:47;;;;;;;29.27;12.67;;;0.80;99.90;;;;;;4992187;28;20058;-70
2022/01/08 07:03:14;;;;;;;30.27;13.37;;;0.80;99.90;;;;;;4991954;28;20082;-70
2022/01/08 07:05:41;;;;;;;29.53;12.50;;;0.90;99.90;;;;;;4991953;28;20133;-70
2022/01/08 07:08:10;;;;;;;29.27;13.93;;;0.90;99.90;;;;;;4992255;28;20174;-70
2022/01/08 07:10:39;;;;;;;29.10;13.80;;;0.90;99.90;;;;;;4995914;28;20054;-69
2022/01/08 07:13:05;;;;;;;28.40;13.00;;;0.90;99.90;;;;;;4995946;28;20051;-69
2022/01/08 07:15:32;;;;;;;27.00;12.13;;;0.90;99.90;;;;;;4996088;28;20418;-69
2022/01/08 07:17:59;;;;;;;28.47;13.47;;;0.90;99.90;;;;;;4995955;28;20133;-69
2022/01/08 07:20:27;;;;;;;26.40;12.37;;;0.90;99.90;;;;;;4995778;28;20157;-69
2022/01/08 07:22:54;;;;;;;30.97;14.03;;;0.90;99.90;;;;;;4995549;28;20141;-70
2022/01/08 07:25:21;;;;;;;26.87;12.70;;;0.90;99.90;;;;;;4995523;28;20141;-70
2022/01/08 07:27:49;;;;;;;33.57;14.77;;;0.90;99.90;;;;;;4995460;28;20137;-70
2022/01/08 07:30:16;;;;;;;37.40;15.10;;;0.90;99.90;;;;;;4995602;28;20081;-70
2022/01/08 07:32:44;;;;;;;38.97;15.03;;;0.90;99.90;;;;;;4995297;28;20138;-70
2022/01/08 07:35:14;;;;;;;34.07;14.33;;;0.80;99.90;;;;;;4995446;28;20154;-70
2022/01/08 07:37:41;;;;;;;33.37;13.80;;;0.90;99.90;;;;;;4995441;28;20105;-70
2022/01/08 07:40:10;;;;;;;32.60;13.90;;;0.90;99.90;;;;;;4995310;28;20086;-70
2022/01/08 07:42:37;;;;;;;34.63;15.40;;;0.90;99.90;;;;;;4995010;28;20124;-70
2022/01/08 07:45:07;;;;;;;35.57;15.33;;;0.90;99.90;;;;;;4995063;28;20082;-70
2022/01/08 07:47:34;;;;;;;41.13;15.40;;;0.90;99.90;;;;;;4995920;28;20137;-69
2022/01/08 07:50:01;;;;;;;34.07;15.40;;;0.90;99.90;;;;;;5015422;28;20055;-70
2022/01/08 07:52:28;;;;;;;35.70;14.83;;;0.90;99.90;;;;;;5012133;28;20050;-69
2022/01/08 07:54:55;;;;;;;32.90;14.83;;;0.90;99.90;;;;;;4995844;28;20463;-69
2022/01/08 07:57:22;;;;;;;42.67;16.10;;;0.90;99.90;;;;;;4995394;28;20133;-69
2022/01/08 07:59:49;;;;;;;37.33;16.27;;;1.00;99.90;;;;;;4995189;28;20086;-69
2022/01/08 08:02:18;;;;;;;33.37;14.83;;;1.00;99.90;;;;;;4994825;28;20145;-69
2022/01/08 08:04:45;;;;;;;41.17;16.33;;;1.00;99.90;;;;;;4994982;28;20065;-69
2022/01/08 08:07:13;;;;;;;35.60;15.50;;;1.10;99.90;;;;;;4995016;28;20498;-70
2022/01/08 08:09:40;;;;;;;34.03;15.63;;;1.10;99.90;;;;;;4994848;28;20422;-69
2022/01/08 08:12:08;;;;;;;45.27;15.57;;;1.10;99.90;;;;;;4994488;28;20141;-69
2022/01/08 08:14:35;;;;;;;35.63;15.67;;;1.10;99.90;;;;;;4995620;28;20137;-69
2022/01/08 08:17:01;;;;;;;35.63;14.17;;;1.10;99.90;;;;;;4995203;28;20046;-69
2022/01/08 08:19:30;;;;;;;34.80;15.37;;;1.20;99.90;;;;;;4994447;28;20141;-69
2022/01/08 08:21:57;;;;;;;41.37;16.37;;;1.20;99.90;;;;;;4994346;28;20135;-69
2022/01/08 08:24:24;;;;;;;36.07;13.80;;;1.20;99.90;;;;;;4994436;28;20081;-69
2022/01/08 08:26:50;;;;;;;32.27;14.00;;;1.20;99.90;;;;;;4994393;28;20057;-69
2022/01/08 08:29:17;;;;;;;33.50;14.27;;;1.20;99.90;;;;;;4994856;28;20141;-69
2022/01/08 08:31:44;;;;;;;29.87;13.63;;;1.20;99.90;;;;;;4994320;28;20439;-69
2022/01/08 08:34:11;;;;;;;27.43;13.13;;;1.20;99.90;;;;;;4994238;28;20137;-69
2022/01/08 08:36:39;;;;;;;25.87;12.43;;;1.20;99.90;;;;;;5006563;28;20069;-69
2022/01/08 08:39:06;;;;;;;24.70;11.67;;;1.20;99.90;;;;;;5015438;28;20057;-69
2022/01/08 08:41:33;;;;;;;24.33;11.17;;;1.30;99.90;;;;;;5003471;28;20108;-69
2022/01/08 08:44:00;;;;;;;21.37;10.63;;;1.30;99.90;;;;;;4994168;28;20142;-69
2022/01/08 08:46:27;;;;;;;20.73;10.97;;;1.30;99.90;;;;;;4994094;28;20101;-69
2022/01/08 08:48:54;;;;;;;26.00;12.30;;;1.30;99.90;;;;;;4994141;28;20462;-69
2022/01/08 08:51:21;;;;;;;20.20;10.07;;;1.40;99.90;;;;;;4993771;28;20137;-69
2022/01/08 08:53:49;;;;;;;24.03;10.67;;;1.40;99.90;;;;;;4994127;28;20133;-69
2022/01/08 08:56:16;;;;;;;20.80;10.23;;;1.40;99.90;;;;;;4993812;28;20133;-69
2022/01/08 08:58:43;;;;;;;23.07;11.07;;;1.30;99.90;;;;;;4993831;28;20583;-69
2022/01/08 09:01:10;;;;;;;21.77;10.03;;;1.30;99.90;;;;;;4993825;28;20480;-69
2022/01/08 09:03:37;;;;;;;18.73;9.47;;;1.20;99.90;;;;;;4993637;28;20137;-69
2022/01/08 09:06:04;;;;;;;20.27;9.13;;;1.30;99.90;;;;;;4993345;28;20141;-69
2022/01/08 09:08:31;;;;;;;17.33;8.53;;;1.30;99.90;;;;;;4993596;28;20082;-69
2022/01/08 09:10:59;;;;;;;16.87;7.93;;;1.30;99.90;;;;;;4993348;28;20082;-69
2022/01/08 09:13:27;;;;;;;22.30;9.47;;;1.40;99.90;;;;;;4993442;28;20408;-69
2022/01/08 09:15:54;;;;;;;17.87;8.63;;;1.40;99.90;;;;;;4993582;28;20053;-69
2022/01/08 09:18:22;;;;;;;16.83;8.10;;;1.40;99.90;;;;;;4993628;28;20085;-69
2022/01/08 09:20:49;;;;;;;17.40;8.57;;;1.40;99.90;;;;;;4993255;28;20477;-69
2022/01/08 09:23:16;;;;;;;14.47;7.93;;;1.50;99.90;;;;;;4993288;28;20137;-69
2022/01/08 09:25:44;;;;;;;15.00;8.37;;;1.50;99.90;;;;;;4993189;28;20133;-69
2022/01/08 09:28:12;;;;;;;15.47;7.93;;;1.50;99.90;;;;;;4993207;28;20448;-69
2022/01/08 09:30:39;;;;;;;12.53;7.00;;;1.50;99.90;;;;;;4993275;28;20586;-69
2022/01/08 09:33:07;;;;;;;13.90;6.87;;;1.60;99.90;;;;;;4992553;28;20485;-69
2022/01/08 09:35:34;;;;;;;13.33;6.47;;;1.60;99.90;;;;;;4993193;28;20137;-69
2022/01/08 09:38:01;;;;;;;11.03;5.50;;;1.60;99.90;;;;;;4993651;28;20085;-69
2022/01/08 09:40:28;;;;;;;11.87;4.80;;;1.60;99.90;;;;;;5079141;23;20074;-65
2022/01/08 09:42:55;;;;;;;8.97;4.40;;;1.60;99.90;;;;;;4991777;28;20143;-66
2022/01/08 09:45:24;;;;;;;8.47;4.30;;;1.60;99.90;;;;;;4992949;28;20133;-66
2022/01/08 09:47:52;;;;;;;7.20;3.50;;;1.60;99.90;;;;;;4993162;28;20133;-66
2022/01/08 09:50:19;;;;;;;7.23;2.93;;;1.60;99.90;;;;;;4993079;28;20065;-71
2022/01/08 09:52:46;;;;;;;5.10;2.33;;;1.60;99.90;;;;;;4992790;28;20089;-66
2022/01/08 09:55:13;;;;;;;9.53;2.10;;;1.60;99.90;;;;;;4993570;28;20561;-66
2022/01/08 09:57:40;;;;;;;4.07;1.63;;;1.60;99.90;;;;;;4992582;28;20054;-66
2022/01/08 10:00:13;;;;;;;5.40;1.80;;;1.60;99.90;;;;;;4992757;28;20129;-66
2022/01/08 10:02:41;;;;;;;5.73;1.63;;;1.70;99.90;;;;;;4992714;28;20054;-66
2022/01/08 10:05:10;;;;;;;5.93;2.13;;;1.60;99.90;;;;;;4992297;28;20483;-65
2022/01/08 10:07:37;;;;;;;7.07;2.80;;;1.70;99.90;;;;;;4992418;28;20128;-66
2022/01/08 10:10:13;;;;;;;8.60;2.60;;;1.70;99.90;;;;;;4992688;28;20146;-68
2022/01/08 10:12:49;;;;;;;5.70;2.50;;;1.90;99.90;;;;;;4992484;28;20050;-66
2022/01/08 10:18:09;;;;;;;9.37;2.70;;;1.90;99.90;;;;;;4992580;28;20522;-66
2022/01/08 10:20:38;;;;;;;9.07;3.10;;;1.80;99.90;;;;;;4992492;28;20089;-67
2022/01/08 10:23:17;;;;;;;7.97;2.70;;;1.70;99.90;;;;;;4992211;28;20077;-67
2022/01/08 10:25:59;;;;;;;6.53;3.20;;;1.70;99.90;;;;;;4992170;28;20129;-66
2022/01/08 10:28:38;;;;;;;6.43;2.90;;;1.60;99.90;;;;;;4992333;28;20137;-65
2022/01/08 10:31:14;;;;;;;7.50;2.70;;;1.70;99.90;;;;;;4992348;28;20141;-67
2022/01/08 10:33:45;;;;;;;7.25;2.55;;;1.70;99.90;;;;;;4992324;28;20502;-66
2022/01/08 10:36:12;;;;;;;6.00;2.43;;;1.60;99.90;;;;;;4992095;28;20137;-66
2022/01/08 10:38:40;;;;;;;6.70;2.60;;;1.60;99.90;;;;;;4992867;28;20070;-66
2022/01/08 10:41:14;;;;;;;6.57;2.40;;;1.70;99.90;;;;;;4974896;28;20120;-67
2022/01/08 10:43:41;;;;;;;5.73;2.30;;;1.70;99.90;;;;;;4993534;28;20077;-67
2022/01/08 10:46:11;;;;;;;7.17;2.70;;;1.70;99.90;;;;;;4996407;28;20062;-66
2022/01/08 10:48:38;;;;;;;10.57;3.17;;;1.70;99.90;;;;;;4996468;28;20113;-67
2022/01/08 10:51:19;;;;;;;5.53;2.17;;;1.80;99.90;;;;;;4996449;28;20194;-66
2022/01/08 10:54:01;;;;;;;8.07;3.50;;;1.90;99.90;;;;;;4996420;28;20086;-66
2022/01/08 10:56:30;;;;;;;6.53;3.27;;;2.10;99.90;;;;;;4987969;28;20093;-66
2022/01/08 10:59:03;;;;;;;4.83;2.27;;;2.10;99.90;;;;;;4996147;28;20050;-67
2022/01/08 11:01:52;;;;;;;9.80;3.67;;;2.00;99.90;;;;;;4996092;28;20088;-67
2022/01/08 11:04:32;;;;;;;7.40;3.30;;;2.10;99.90;;;;;;4993538;28;20579;-64
2022/01/08 11:07:02;;;;;;;7.70;2.83;;;2.20;99.90;;;;;;4996193;28;20061;-68
2022/01/08 11:09:30;;;;;;;5.57;2.73;;;2.60;99.90;;;;;;4996337;28;20510;-67
2022/01/08 11:11:59;;;;;;;5.93;3.23;;;3.50;99.90;;;;;;4995961;28;20150;-67
2022/01/08 11:17:18;;;;;;;8.10;3.27;;;3.10;99.90;;;;;;4990258;28;20070;-66
2022/01/08 11:19:49;;;;;;;8.87;3.27;;;2.90;99.90;;;;;;4995792;28;20227;-67
2022/01/08 11:22:19;;;;;;;10.57;3.27;;;2.80;99.90;;;;;;4995839;28;20605;-66
2022/01/08 11:24:52;;;;;;;7.50;3.27;;;2.60;99.90;;;;;;4995270;28;20089;-68
2022/01/08 11:27:23;;;;;;;9.47;3.23;;;2.60;99.90;;;;;;4995692;28;20395;-67
2022/01/08 11:30:03;;;;;;;6.60;3.20;;;2.90;99.90;;;;;;4995567;28;20129;-68
2022/01/08 11:32:31;;;;;;;7.70;2.93;;;2.70;99.90;;;;;;4995364;28;20137;-68
2022/01/08 11:34:58;;;;;;;6.93;3.20;;;3.40;99.90;;;;;;4995061;28;20137;-68
2022/01/08 11:37:27;;;;;;;6.30;2.70;;;4.10;99.90;;;;;;4995423;28;20585;-66
2022/01/08 11:39:55;;;;;;;7.40;2.27;;;7.20;99.90;;;;;;4995405;28;20086;-66
2022/01/08 11:42:23;;;;;;;8.75;2.30;;;8.10;99.90;;;;;;4995224;28;20054;-68
2022/01/08 11:44:53;;;;;;;5.80;1.80;;;9.30;99.90;;;;;;4994826;28;20046;-69
2022/01/08 11:47:22;;;;;;;9.02;1.95;;;6.40;99.90;;;;;;4995168;28;20078;-66
2022/01/08 11:49:50;;;;;;;7.32;2.38;;;6.30;99.90;;;;;;4995325;28;20514;-68
2022/01/08 11:52:20;;;;;;;5.35;2.20;;;5.50;99.90;;;;;;4995012;28;20580;-67
2022/01/08 11:54:50;;;;;;;4.13;2.00;;;3.90;99.90;;;;;;4994757;28;20093;-69
2022/01/08 11:57:19;;;;;;;6.45;2.00;;;3.50;99.90;;;;;;4995055;28;20616;-68
2022/01/08 11:59:47;;;;;;;4.07;2.00;;;3.20;99.90;;;;;;4995411;28;20133;-67
2022/01/08 12:02:15;;;;;;;5.83;2.10;;;2.70;99.90;;;;;;4994712;28;20141;-67
2022/01/08 12:04:44;;;;;;;9.83;3.07;;;2.80;99.90;;;;;;4995043;28;20051;-67
2022/01/08 12:07:35;;;;;;;4.73;2.30;;;2.90;99.90;;;;;;4995392;28;20058;-67
2022/01/08 12:10:15;;;;;;;6.20;2.30;;;3.10;99.90;;;;;;4995190;28;20458;-67
2022/01/08 12:12:54;;;;;;;6.63;2.50;;;4.70;99.90;;;;;;4994808;28;20054;-67
2022/01/08 12:15:48;;;;;;;6.10;2.37;;;3.30;99.90;;;;;;4994765;28;20510;-67
2022/01/08 12:18:17;;;;;;;6.70;3.00;;;3.70;99.90;;;;;;4995051;28;20057;-68
2022/01/08 12:20:46;;;;;;;6.40;3.07;;;3.60;99.90;;;;;;4995135;28;20057;-68
2022/01/08 12:23:31;;;;;;;7.23;2.93;;;3.40;99.90;;;;;;4994409;28;20090;-68
2022/01/08 12:26:02;;;;;;;7.03;2.80;;;3.20;99.90;;;;;;4994556;28;20145;-68
2022/01/08 12:29:00;;;;;;;11.10;4.30;;;3.00;99.90;;;;;;4994838;28;20711;-67
2022/01/08 12:31:41;;;;;;;7.43;2.83;;;2.70;99.90;;;;;;4934305;29;20052;-67
2022/01/08 12:34:31;;;;;;;6.43;3.77;;;2.40;99.90;;;;;;4986441;28;20502;-66
2022/01/08 12:37:00;;;;;;;10.87;2.97;;;2.30;99.90;;;;;;4994781;28;20193;-68
2022/01/08 12:39:47;;;;;;;9.77;3.70;;;2.20;99.90;;;;;;4994215;28;20085;-67
2022/01/08 12:42:45;;;;;;;8.50;3.60;;;2.20;99.90;;;;;;4995395;28;20066;-67
2022/01/08 12:45:20;;;;;;;8.23;4.20;;;2.20;99.90;;;;;;4915487;29;20079;-66
2022/01/08 12:48:05;;;;;;;11.17;4.60;;;2.10;99.90;;;;;;4981390;28;20124;-66
2022/01/08 12:50:33;;;;;;;11.87;4.60;;;2.10;99.90;;;;;;4994438;28;20133;-67
2022/01/08 12:53:22;;;;;;;15.17;4.90;;;2.10;99.90;;;;;;4993991;28;20113;-67
2022/01/08 12:56:09;;;;;;;10.03;3.97;;;2.00;99.90;;;;;;4993720;28;20058;-66
2022/01/08 12:58:44;;;;;;;15.57;4.68;;;1.90;99.90;;;;;;4994205;28;20054;-66
2022/01/08 13:01:13;;;;;;;9.57;4.57;;;1.90;99.90;;;;;;4994045;28;20055;-67
2022/01/08 13:03:42;;;;;;;10.77;4.33;;;1.80;99.90;;;;;;4993924;28;20153;-68
2022/01/08 13:06:22;;;;;;;8.20;4.17;;;1.80;99.90;;;;;;4992710;28;20133;-68
2022/01/08 13:08:50;;;;;;;10.93;4.23;;;1.80;99.90;;;;;;4994287;28;20141;-66
2022/01/08 13:11:19;;;;;;;12.90;5.47;;;1.80;99.90;;;;;;4994212;28;20410;-68
2022/01/08 13:13:49;;;;;;;9.27;4.90;;;1.70;99.90;;;;;;4994054;28;20534;-68
2022/01/08 13:16:18;;;;;;;12.13;5.37;;;1.80;99.90;;;;;;4993777;28;20078;-66